map of KPCW home
Great Circle Mapper logo
KPCW - Airport
Location
City:  Port Clinton, Ohio, United States
Name:Carl R Keller Field
ICAO:KPCW
FAA:PCW

Details
Type:Airport (Airfield)
Use:Public/Civil
Latitude:4130'59"N (41.516270)
Longitude:8252'10"W (-82.869486)
Datum:WGS 1984
Elevation:590 ft (180 m)
Runways:2
Longest:5646 × 100 ft (1721 × 30.5 m), paved

Time
Time Zone:UTC-5 (DST-4)
Local Time:

Weather
METAR:KPCW 171013Z AUTO 14007KT 10SM CLR 02/M05 A3032 RMK AO2 $

Related Locations
Nearby:
Farthest:MGV: 11328 mi / 18231 km
Margaret River, WA, AU

Find:

   beyond  
but within

Other Information
Maps:
NOTAMs:
Links:
Sources:

  
flag of United States
flag of Ohio
  

Sectional Chart

Flight Planning
at skyvector.com

Satellite Image

Google Maps Satellite View

 

Copyright © 2004-2014 Karl L. Swartz. All rights reserved.
The Great Circle Mapper name and logo are trademarks of the Great Circle Mapper.
All other trademarks mentioned herein belong to their respective owners.
Please see credits for attibutions and further copyright information.

  Follow gcmap on Facebook Follow gcmap on Twitter

hCard Microformat

Geo Microformat